CheckWX is a tool to help pilots better visualize weather data.  It is not intended as a substitute for an official pre-flight weather briefing.

15:12:32 UTC

KLKU METAR
Louisa County / Freeman Field Airport
Louisa, Virginia, USA
Current

18 mins ago

KLKU 261455Z AUTO 24004KT 10SM CLR 29/19 A3010 RMK AO2 T02910194
Observed
May-26 @ 14:55 UTC
Wind
  • 240° at 4 KTS
Visibility
10 SM
Flight Rules
VFR
Cloud Levels
  • Clear skies
Temperature
29°C / 84°F
Dewpoint
19°C / 66°F
Heat Index
30°C / 86°F
Humidity
55%
Altimeter
30.1" Hg
Pressure
1019.32 hPa
Previous

38 mins ago

KLKU 261435Z AUTO 26004KT 7SM CLR 29/21 A3010 RMK AO2 T02860208
Observed
May-26 @ 14:35 UTC
Wind
  • 260° at 4 KTS
Visibility
7 SM
Flight Rules
VFR
Cloud Levels
  • Clear skies
Temperature
29°C / 84°F
Dewpoint
21°C / 70°F
Heat Index
31°C / 88°F
Humidity
62%
Altimeter
30.1" Hg
Pressure
1019.32 hPa
Previous

58 mins ago

KLKU 261415Z AUTO 24004KT 10SM CLR 28/21 A3010 RMK AO2 T02810206
Observed
May-26 @ 14:15 UTC
Wind
  • 240° at 4 KTS
Visibility
10 SM
Flight Rules
VFR
Cloud Levels
  • Clear skies
Temperature
28°C / 82°F
Dewpoint
21°C / 70°F
Heat Index
30°C / 86°F
Humidity
66%
Altimeter
30.1" Hg
Pressure
1019.32 hPa